DLH6KK EHAM-EDDM
Flight info
| Callsign | DLH6KK |
|---|---|
| Flight time | N/A |
| Altitude | 35000 |
| Route | EDUPO Z739 MISGO DCT DOJOH DCT DODEN DCT TABUM DCT BOMBI T104 ROKIL ROKIL1B |
| Aircraft | A320/M-SDE3FGHIRWY/LB1 |
Departure
| Time | 2026-05-07 14:13 |
|---|---|
| Airport | Amsterdam Airport Schiphol (EHAM) |
Arrival
| Time | N/A |
|---|---|
| Airport | Munich Airport (EDDM) |
| Time | Latitude | Longitude | Altitude | Speed | Heading |
|---|---|---|---|---|---|
| 2026-05-07 13:33 | 52.30376 | 4.76395 | -1 ft | 0 kts | 238° |
| 2026-05-07 13:56 | 52.30379 | 4.76401 | 0 ft | 2 kts | 238° |
| 2026-05-07 13:56 | 52.30387 | 4.76422 | 0 ft | 2 kts | 238° |
| 2026-05-07 13:56 | 52.30392 | 4.76436 | 0 ft | 2 kts | 239° |
| 2026-05-07 13:57 | 52.30405 | 4.76452 | 0 ft | 2 kts | 190° |
| 2026-05-07 13:57 | 52.30416 | 4.76452 | 0 ft | 0 kts | 161° |
| 2026-05-07 13:57 | 52.30423 | 4.76446 | 0 ft | 0 kts | 157° |
| 2026-05-07 14:01 | 52.30420 | 4.76449 | -1 ft | 1 kts | 152° |
| 2026-05-07 14:01 | 52.30400 | 4.76471 | 0 ft | 4 kts | 146° |
| 2026-05-07 14:01 | 52.30369 | 4.76505 | -1 ft | 3 kts | 147° |
| 2026-05-07 14:01 | 52.30344 | 4.76531 | -1 ft | 6 kts | 153° |
| 2026-05-07 14:02 | 52.30291 | 4.76509 | 0 ft | 11 kts | 228° |
| 2026-05-07 14:02 | 52.30240 | 4.76379 | 0 ft | 15 kts | 238° |
| 2026-05-07 14:02 | 52.30176 | 4.76209 | -1 ft | 18 kts | 238° |
| 2026-05-07 14:02 | 52.30100 | 4.76009 | -1 ft | 21 kts | 238° |
| 2026-05-07 14:03 | 52.30015 | 4.75791 | -1 ft | 22 kts | 238° |
| 2026-05-07 14:03 | 52.29932 | 4.75574 | 0 ft | 21 kts | 238° |
| 2026-05-07 14:03 | 52.29850 | 4.75362 | 0 ft | 19 kts | 237° |
| 2026-05-07 14:03 | 52.29845 | 4.75195 | -1 ft | 16 kts | 301° |
| 2026-05-07 14:04 | 52.29928 | 4.75035 | -1 ft | 20 kts | 313° |
| 2026-05-07 14:04 | 52.30023 | 4.74857 | 0 ft | 20 kts | 311° |
| 2026-05-07 14:04 | 52.30127 | 4.74664 | 0 ft | 23 kts | 311° |
| 2026-05-07 14:04 | 52.30245 | 4.74444 | 0 ft | 25 kts | 311° |
| 2026-05-07 14:05 | 52.30359 | 4.74236 | -1 ft | 21 kts | 322° |
| 2026-05-07 14:05 | 52.30510 | 4.74198 | 0 ft | 23 kts | 3° |
| 2026-05-07 14:05 | 52.30685 | 4.74212 | 0 ft | 25 kts | 3° |
| 2026-05-07 14:05 | 52.30866 | 4.74229 | -1 ft | 26 kts | 4° |
| 2026-05-07 14:06 | 52.31048 | 4.74248 | 0 ft | 25 kts | 4° |
| 2026-05-07 14:06 | 52.31221 | 4.74264 | -1 ft | 24 kts | 3° |
| 2026-05-07 14:06 | 52.31363 | 4.74280 | -1 ft | 13 kts | 22° |
| 2026-05-07 14:06 | 52.31393 | 4.74424 | -1 ft | 13 kts | 87° |
| 2026-05-07 14:07 | 52.31399 | 4.74592 | -1 ft | 14 kts | 86° |
| 2026-05-07 14:07 | 52.31441 | 4.74670 | 0 ft | 0 kts | 355° |
| 2026-05-07 14:09 | 52.31455 | 4.74668 | 0 ft | 5 kts | 356° |
| 2026-05-07 14:09 | 52.31506 | 4.74664 | 0 ft | 8 kts | 358° |
| 2026-05-07 14:09 | 52.31562 | 4.74659 | -1 ft | 3 kts | 357° |
| 2026-05-07 14:10 | 52.31563 | 4.74659 | -1 ft | 0 kts | 357° |
| 2026-05-07 14:10 | 52.31570 | 4.74658 | 0 ft | 3 kts | 357° |
| 2026-05-07 14:10 | 52.31610 | 4.74659 | -1 ft | 8 kts | 12° |
| 2026-05-07 14:11 | 52.31659 | 4.74679 | -1 ft | 4 kts | 22° |
| 2026-05-07 14:11 | 52.31666 | 4.74710 | -1 ft | 0 kts | 86° |
| 2026-05-07 14:12 | 52.31668 | 4.74763 | -1 ft | 24 kts | 86° |
| 2026-05-07 14:13 | 52.31694 | 4.75542 | 0 ft | 101 kts | 87° |
| 2026-05-07 14:13 | 52.31747 | 4.77130 | 2 ft | 161 kts | 86° |
| 2026-05-07 14:13 | 52.31810 | 4.79012 | 590 ft | 164 kts | 86° |
| 2026-05-07 14:13 | 52.31873 | 4.80940 | 1206 ft | 173 kts | 84° |
| 2026-05-07 14:14 | 52.31962 | 4.83103 | 1684 ft | 191 kts | 85° |
| 2026-05-07 14:14 | 52.32023 | 4.85442 | 2278 ft | 204 kts | 90° |
| 2026-05-07 14:14 | 52.31742 | 4.87925 | 2742 ft | 228 kts | 108° |
| 2026-05-07 14:14 | 52.31083 | 4.90491 | 3279 ft | 248 kts | 112° |
| 2026-05-07 14:15 | 52.30342 | 4.93225 | 3862 ft | 264 kts | 112° |
| 2026-05-07 14:15 | 52.29628 | 4.96081 | 4826 ft | 264 kts | 108° |
| 2026-05-07 14:15 | 52.29070 | 4.98988 | 5657 ft | 267 kts | 105° |
| 2026-05-07 14:15 | 52.28568 | 5.01899 | 6558 ft | 268 kts | 105° |
| 2026-05-07 14:16 | 52.28054 | 5.04888 | 7397 ft | 272 kts | 105° |
| 2026-05-07 14:16 | 52.27544 | 5.07845 | 8170 ft | 277 kts | 105° |
| 2026-05-07 14:16 | 52.27016 | 5.10880 | 8922 ft | 281 kts | 105° |
| 2026-05-07 14:16 | 52.26469 | 5.14007 | 9687 ft | 286 kts | 106° |
| 2026-05-07 14:17 | 52.25917 | 5.17152 | 10409 ft | 291 kts | 106° |
| 2026-05-07 14:17 | 52.25347 | 5.20399 | 10870 ft | 306 kts | 106° |
| 2026-05-07 14:17 | 52.24682 | 5.23832 | 11270 ft | 322 kts | 111° |
| 2026-05-07 14:17 | 52.23713 | 5.27161 | 11909 ft | 328 kts | 120° |
| 2026-05-07 14:18 | 52.22469 | 5.30286 | 12648 ft | 331 kts | 124° |
| 2026-05-07 14:18 | 52.21125 | 5.33381 | 13334 ft | 334 kts | 125° |
| 2026-05-07 14:18 | 52.19770 | 5.36463 | 13994 ft | 338 kts | 125° |
| 2026-05-07 14:18 | 52.18411 | 5.39558 | 14643 ft | 341 kts | 125° |
| 2026-05-07 14:19 | 52.17006 | 5.42770 | 15283 ft | 345 kts | 125° |
| 2026-05-07 14:19 | 52.15611 | 5.45963 | 15894 ft | 349 kts | 125° |
| 2026-05-07 14:19 | 52.14180 | 5.49237 | 16501 ft | 352 kts | 125° |
| 2026-05-07 14:19 | 52.12729 | 5.52556 | 17106 ft | 356 kts | 125° |
| 2026-05-07 14:20 | 52.11280 | 5.55869 | 17686 ft | 359 kts | 125° |
| 2026-05-07 14:20 | 52.09801 | 5.59245 | 18233 ft | 363 kts | 125° |
| 2026-05-07 14:20 | 52.08311 | 5.62643 | 18781 ft | 366 kts | 125° |
| 2026-05-07 14:20 | 52.06799 | 5.66070 | 19313 ft | 369 kts | 127° |
| 2026-05-07 14:21 | 52.05191 | 5.69361 | 19859 ft | 371 kts | 131° |
| 2026-05-07 14:21 | 52.03456 | 5.72620 | 20395 ft | 374 kts | 132° |
| 2026-05-07 14:21 | 52.01711 | 5.75867 | 20931 ft | 376 kts | 132° |
| 2026-05-07 14:21 | 51.99955 | 5.79131 | 21446 ft | 379 kts | 132° |
| 2026-05-07 14:22 | 51.98186 | 5.82419 | 21965 ft | 381 kts | 132° |
| 2026-05-07 14:22 | 51.96419 | 5.85714 | 22459 ft | 384 kts | 132° |
| 2026-05-07 14:22 | 51.94658 | 5.89005 | 22941 ft | 387 kts | 132° |
| 2026-05-07 14:22 | 51.92899 | 5.92290 | 23412 ft | 389 kts | 132° |
| 2026-05-07 14:23 | 51.91113 | 5.95618 | 23872 ft | 392 kts | 132° |
| 2026-05-07 14:23 | 51.89335 | 5.98926 | 24323 ft | 394 kts | 132° |
| 2026-05-07 14:23 | 51.87524 | 6.02290 | 24761 ft | 397 kts | 132° |
| 2026-05-07 14:23 | 51.85725 | 6.05628 | 25184 ft | 399 kts | 132° |
| 2026-05-07 14:24 | 51.83890 | 6.09014 | 25604 ft | 402 kts | 132° |
| 2026-05-07 14:24 | 51.82040 | 6.12416 | 26003 ft | 404 kts | 132° |
| 2026-05-07 14:24 | 51.80196 | 6.15794 | 26386 ft | 407 kts | 132° |
| 2026-05-07 14:24 | 51.78310 | 6.19247 | 26768 ft | 409 kts | 132° |
| 2026-05-07 14:25 | 51.76426 | 6.22696 | 27136 ft | 412 kts | 132° |
| 2026-05-07 14:25 | 51.74544 | 6.26133 | 27491 ft | 414 kts | 132° |
| 2026-05-07 14:25 | 51.72628 | 6.29628 | 27848 ft | 416 kts | 132° |
| 2026-05-07 14:25 | 51.70728 | 6.33088 | 28186 ft | 418 kts | 132° |
| 2026-05-07 14:26 | 51.68785 | 6.36622 | 28521 ft | 421 kts | 132° |
| 2026-05-07 14:26 | 51.66836 | 6.40159 | 28841 ft | 423 kts | 132° |
| 2026-05-07 14:26 | 51.64896 | 6.43676 | 29149 ft | 425 kts | 132° |
| 2026-05-07 14:26 | 51.62932 | 6.47235 | 29454 ft | 427 kts | 132° |
| 2026-05-07 14:27 | 51.60940 | 6.50842 | 29752 ft | 429 kts | 132° |
| 2026-05-07 14:27 | 51.58984 | 6.54379 | 30037 ft | 431 kts | 132° |
| 2026-05-07 14:27 | 51.56968 | 6.58017 | 30322 ft | 433 kts | 132° |
| 2026-05-07 14:27 | 51.54985 | 6.61591 | 30594 ft | 435 kts | 131° |
| 2026-05-07 14:28 | 51.52938 | 6.65275 | 30854 ft | 437 kts | 133° |
| 2026-05-07 14:28 | 51.50940 | 6.68866 | 31107 ft | 439 kts | 132° |
| 2026-05-07 14:28 | 51.48904 | 6.72518 | 31342 ft | 441 kts | 132° |
| 2026-05-07 14:28 | 51.46853 | 6.76191 | 31562 ft | 442 kts | 132° |
| 2026-05-07 14:29 | 51.44809 | 6.79845 | 31766 ft | 444 kts | 132° |
| 2026-05-07 14:29 | 51.42726 | 6.83565 | 31967 ft | 446 kts | 132° |
| 2026-05-07 14:29 | 51.40633 | 6.87246 | 32164 ft | 448 kts | 134° |
| 2026-05-07 14:29 | 51.38440 | 6.90759 | 32363 ft | 449 kts | 136° |
| 2026-05-07 14:30 | 51.36165 | 6.94301 | 32558 ft | 451 kts | 136° |
| 2026-05-07 14:30 | 51.33910 | 6.97802 | 32737 ft | 452 kts | 136° |
| 2026-05-07 14:30 | 51.31681 | 7.01256 | 32964 ft | 452 kts | 136° |
| 2026-05-07 14:30 | 51.29415 | 7.04765 | 33220 ft | 452 kts | 136° |
| 2026-05-07 14:31 | 51.27154 | 7.08262 | 33423 ft | 452 kts | 136° |
| 2026-05-07 14:31 | 51.24900 | 7.11742 | 33596 ft | 453 kts | 136° |
| 2026-05-07 14:31 | 51.22633 | 7.15240 | 33762 ft | 454 kts | 136° |
| 2026-05-07 14:31 | 51.20373 | 7.18719 | 33918 ft | 455 kts | 136° |
| 2026-05-07 14:32 | 51.18092 | 7.22225 | 34056 ft | 456 kts | 136° |
| 2026-05-07 14:32 | 51.15813 | 7.25725 | 34190 ft | 457 kts | 136° |
| 2026-05-07 14:32 | 51.13549 | 7.29196 | 34322 ft | 458 kts | 136° |
| 2026-05-07 14:32 | 51.11240 | 7.32732 | 34441 ft | 458 kts | 136° |
| 2026-05-07 14:33 | 51.08939 | 7.36249 | 34551 ft | 459 kts | 136° |
| 2026-05-07 14:33 | 51.06661 | 7.39726 | 34663 ft | 460 kts | 136° |
| 2026-05-07 14:33 | 51.04346 | 7.43254 | 34773 ft | 461 kts | 136° |
| 2026-05-07 14:33 | 51.02032 | 7.46777 | 34882 ft | 461 kts | 136° |
| 2026-05-07 14:34 | 50.99723 | 7.50288 | 34987 ft | 462 kts | 136° |
| 2026-05-07 14:34 | 50.95085 | 7.57320 | 35012 ft | 462 kts | 136° |
| 2026-05-07 14:35 | 50.90454 | 7.64322 | 35016 ft | 462 kts | 136° |
| 2026-05-07 14:35 | 50.85886 | 7.71208 | 35018 ft | 462 kts | 136° |
| 2026-05-07 14:36 | 50.81242 | 7.78177 | 35016 ft | 462 kts | 137° |
| 2026-05-07 14:36 | 50.76564 | 7.85146 | 35017 ft | 462 kts | 137° |
| 2026-05-07 14:37 | 50.71894 | 7.92082 | 35016 ft | 462 kts | 137° |
| 2026-05-07 14:37 | 50.64909 | 8.02419 | 35025 ft | 462 kts | 137° |
| 2026-05-07 14:38 | 50.60066 | 8.09070 | 35027 ft | 462 kts | 142° |
| 2026-05-07 14:38 | 50.54838 | 8.14781 | 35028 ft | 461 kts | 148° |
| 2026-05-07 14:39 | 50.49427 | 8.20201 | 35022 ft | 461 kts | 147° |
| 2026-05-07 14:39 | 50.44012 | 8.25626 | 35014 ft | 461 kts | 147° |
| 2026-05-07 14:40 | 50.38623 | 8.31014 | 35014 ft | 461 kts | 147° |
| 2026-05-07 14:40 | 50.33261 | 8.36461 | 35016 ft | 462 kts | 145° |
| 2026-05-07 14:41 | 50.28200 | 8.42666 | 35008 ft | 462 kts | 138° |
| 2026-05-07 14:41 | 50.23652 | 8.49675 | 35005 ft | 463 kts | 132° |
| 2026-05-07 14:42 | 50.19299 | 8.57078 | 35008 ft | 463 kts | 132° |
| 2026-05-07 14:42 | 50.14951 | 8.64433 | 35021 ft | 463 kts | 133° |
| 2026-05-07 14:43 | 50.10572 | 8.71804 | 35018 ft | 463 kts | 133° |
| 2026-05-07 14:43 | 50.06204 | 8.79087 | 35023 ft | 463 kts | 135° |